Terminal Aerodrome Forecast
Issued by NWS

Home | Current Version | Previous Version | Text Only | Print | Product List | Glossary On
Versions: 1 2 3 4 5 6 7 8 9 10 11 12 13 14
934
FTUS46 KMTR 241734
TAFSJC
TAF
KSJC 241734Z 2418/2518 15018G25KT P6SM -RA FEW001 BKN060 OVC080
      TEMPO 2419/2423 4SM RA BKN020 OVC030
     FM250000 14010KT P6SM -SHRA SCT030 SCT050
     FM250400 VRB03KT P6SM VCSH SCT030
     FM251000 00000KT P6SM SCT020
     FM251700 31003KT P6SM SCT030=

USA.gov is the U.S. government's official web portal to all federal, state and local government web resources and services.